sensor_id;sensor_type;location;lat;lon;timestamp;P1;durP1;ratioP1;P2;durP2;ratioP2
77287;SDS011;66345;42.694;23.346;2024-01-10T00:01:42;4.33;;;1.33;;
77287;SDS011;66345;42.694;23.346;2024-01-10T00:04:08;5.93;;;1.52;;
77287;SDS011;66345;42.694;23.346;2024-01-10T00:06:34;4.37;;;1.20;;
77287;SDS011;66345;42.694;23.346;2024-01-10T00:08:59;5.75;;;1.65;;
77287;SDS011;66345;42.694;23.346;2024-01-10T00:11:25;4.17;;;1.40;;
77287;SDS011;66345;42.694;23.346;2024-01-10T00:13:50;3.90;;;1.30;;
77287;SDS011;66345;42.694;23.346;2024-01-10T00:16:16;3.78;;;1.33;;
77287;SDS011;66345;42.694;23.346;2024-01-10T00:18:42;5.07;;;1.50;;
77287;SDS011;66345;42.694;23.346;2024-01-10T00:21:08;3.83;;;1.30;;
77287;SDS011;66345;42.694;23.346;2024-01-10T00:23:33;5.50;;;1.70;;
77287;SDS011;66345;42.694;23.346;2024-01-10T00:25:59;5.57;;;1.70;;
77287;SDS011;66345;42.694;23.346;2024-01-10T00:28:25;4.18;;;1.23;;
77287;SDS011;66345;42.694;23.346;2024-01-10T00:30:51;6.53;;;1.77;;
77287;SDS011;66345;42.694;23.346;2024-01-10T00:33:16;6.90;;;1.70;;
77287;SDS011;66345;42.694;23.346;2024-01-10T00:35:42;4.30;;;1.40;;
77287;SDS011;66345;42.694;23.346;2024-01-10T00:38:08;5.87;;;1.57;;
77287;SDS011;66345;42.694;23.346;2024-01-10T00:40:34;5.05;;;1.90;;
77287;SDS011;66345;42.694;23.346;2024-01-10T00:43:00;3.93;;;1.37;;
77287;SDS011;66345;42.694;23.346;2024-01-10T00:45:26;5.10;;;1.52;;
77287;SDS011;66345;42.694;23.346;2024-01-10T00:47:51;6.32;;;1.75;;
77287;SDS011;66345;42.694;23.346;2024-01-10T00:50:17;4.50;;;1.48;;
77287;SDS011;66345;42.694;23.346;2024-01-10T00:52:45;9.23;;;1.70;;
77287;SDS011;66345;42.694;23.346;2024-01-10T00:55:11;7.47;;;1.90;;
77287;SDS011;66345;42.694;23.346;2024-01-10T00:57:37;5.03;;;1.33;;
77287;SDS011;66345;42.694;23.346;2024-01-10T01:00:06;5.80;;;1.67;;
77287;SDS011;66345;42.694;23.346;2024-01-10T01:02:33;5.65;;;1.42;;
77287;SDS011;66345;42.694;23.346;2024-01-10T01:04:58;4.93;;;1.57;;
77287;SDS011;66345;42.694;23.346;2024-01-10T01:07:26;5.80;;;1.90;;
77287;SDS011;66345;42.694;23.346;2024-01-10T01:09:52;5.25;;;1.60;;
77287;SDS011;66345;42.694;23.346;2024-01-10T01:12:17;5.03;;;1.70;;
77287;SDS011;66345;42.694;23.346;2024-01-10T01:14:43;4.97;;;1.97;;
77287;SDS011;66345;42.694;23.346;2024-01-10T01:17:08;5.03;;;1.70;;
77287;SDS011;66345;42.694;23.346;2024-01-10T01:19:34;5.65;;;1.70;;
77287;SDS011;66345;42.694;23.346;2024-01-10T01:22:00;4.53;;;1.67;;
77287;SDS011;66345;42.694;23.346;2024-01-10T01:24:25;4.57;;;1.70;;
77287;SDS011;66345;42.694;23.346;2024-01-10T01:26:51;7.03;;;1.77;;
77287;SDS011;66345;42.694;23.346;2024-01-10T01:29:17;3.97;;;1.23;;
77287;SDS011;66345;42.694;23.346;2024-01-10T01:31:43;4.07;;;1.55;;
77287;SDS011;66345;42.694;23.346;2024-01-10T01:34:08;6.25;;;1.20;;
77287;SDS011;66345;42.694;23.346;2024-01-10T01:36:34;4.50;;;1.37;;
77287;SDS011;66345;42.694;23.346;2024-01-10T01:38:59;4.93;;;1.70;;
77287;SDS011;66345;42.694;23.346;2024-01-10T01:41:25;6.03;;;1.60;;
77287;SDS011;66345;42.694;23.346;2024-01-10T01:43:51;7.78;;;1.88;;
77287;SDS011;66345;42.694;23.346;2024-01-10T01:46:16;5.80;;;1.40;;
77287;SDS011;66345;42.694;23.346;2024-01-10T01:48:43;7.20;;;1.95;;
77287;SDS011;66345;42.694;23.346;2024-01-10T01:51:09;5.43;;;2.33;;
77287;SDS011;66345;42.694;23.346;2024-01-10T01:53:36;5.13;;;1.98;;
77287;SDS011;66345;42.694;23.346;2024-01-10T01:56:04;5.03;;;1.65;;
77287;SDS011;66345;42.694;23.346;2024-01-10T01:58:32;5.28;;;1.45;;
77287;SDS011;66345;42.694;23.346;2024-01-10T02:00:59;4.68;;;1.73;;
77287;SDS011;66345;42.694;23.346;2024-01-10T02:03:26;5.30;;;1.57;;
77287;SDS011;66345;42.694;23.346;2024-01-10T02:05:52;4.85;;;1.30;;
77287;SDS011;66345;42.694;23.346;2024-01-10T02:08:32;7.27;;;1.47;;
77287;SDS011;66345;42.694;23.346;2024-01-10T02:10:59;7.05;;;1.90;;
77287;SDS011;66345;42.694;23.346;2024-01-10T02:13:26;4.70;;;1.55;;
77287;SDS011;66345;42.694;23.346;2024-01-10T02:15:53;5.80;;;1.52;;
77287;SDS011;66345;42.694;23.346;2024-01-10T02:18:19;4.82;;;1.80;;
77287;SDS011;66345;42.694;23.346;2024-01-10T02:20:45;6.63;;;1.70;;
77287;SDS011;66345;42.694;23.346;2024-01-10T02:23:11;5.15;;;1.52;;
77287;SDS011;66345;42.694;23.346;2024-01-10T02:25:37;5.55;;;1.92;;
77287;SDS011;66345;42.694;23.346;2024-01-10T02:28:03;4.77;;;1.47;;
77287;SDS011;66345;42.694;23.346;2024-01-10T02:30:30;4.40;;;1.50;;
77287;SDS011;66345;42.694;23.346;2024-01-10T02:32:55;6.10;;;2.00;;
77287;SDS011;66345;42.694;23.346;2024-01-10T02:35:21;5.70;;;1.83;;
77287;SDS011;66345;42.694;23.346;2024-01-10T02:37:46;6.00;;;1.60;;
77287;SDS011;66345;42.694;23.346;2024-01-10T02:40:15;5.60;;;1.90;;
77287;SDS011;66345;42.694;23.346;2024-01-10T02:42:41;5.78;;;1.75;;
77287;SDS011;66345;42.694;23.346;2024-01-10T02:45:07;6.53;;;2.03;;
77287;SDS011;66345;42.694;23.346;2024-01-10T02:47:32;4.90;;;1.70;;
77287;SDS011;66345;42.694;23.346;2024-01-10T02:49:58;6.47;;;2.00;;
77287;SDS011;66345;42.694;23.346;2024-01-10T02:52:23;7.00;;;1.80;;
77287;SDS011;66345;42.694;23.346;2024-01-10T02:54:49;4.50;;;1.50;;
77287;SDS011;66345;42.694;23.346;2024-01-10T02:57:14;4.47;;;1.33;;
77287;SDS011;66345;42.694;23.346;2024-01-10T02:59:40;4.55;;;1.67;;
77287;SDS011;66345;42.694;23.346;2024-01-10T03:02:06;5.23;;;1.83;;
77287;SDS011;66345;42.694;23.346;2024-01-10T03:04:31;5.23;;;1.60;;
77287;SDS011;66345;42.694;23.346;2024-01-10T03:07:06;6.78;;;1.75;;
77287;SDS011;66345;42.694;23.346;2024-01-10T03:09:31;3.93;;;1.50;;
77287;SDS011;66345;42.694;23.346;2024-01-10T03:11:57;6.28;;;1.73;;
77287;SDS011;66345;42.694;23.346;2024-01-10T03:14:22;4.77;;;1.60;;
77287;SDS011;66345;42.694;23.346;2024-01-10T03:16:50;5.60;;;1.50;;
77287;SDS011;66345;42.694;23.346;2024-01-10T03:19:16;8.17;;;1.93;;
77287;SDS011;66345;42.694;23.346;2024-01-10T03:21:42;6.47;;;2.00;;
77287;SDS011;66345;42.694;23.346;2024-01-10T03:24:07;5.45;;;1.80;;
77287;SDS011;66345;42.694;23.346;2024-01-10T03:26:33;3.90;;;1.50;;
77287;SDS011;66345;42.694;23.346;2024-01-10T03:28:59;6.25;;;1.70;;
77287;SDS011;66345;42.694;23.346;2024-01-10T03:31:26;5.55;;;1.77;;
77287;SDS011;66345;42.694;23.346;2024-01-10T03:33:53;6.80;;;1.90;;
77287;SDS011;66345;42.694;23.346;2024-01-10T03:36:19;4.45;;;1.60;;
77287;SDS011;66345;42.694;23.346;2024-01-10T03:38:44;5.87;;;2.00;;
77287;SDS011;66345;42.694;23.346;2024-01-10T03:41:14;4.93;;;1.50;;
77287;SDS011;66345;42.694;23.346;2024-01-10T03:43:43;4.88;;;1.77;;
77287;SDS011;66345;42.694;23.346;2024-01-10T03:46:10;5.28;;;1.70;;
77287;SDS011;66345;42.694;23.346;2024-01-10T03:48:35;6.13;;;1.58;;
77287;SDS011;66345;42.694;23.346;2024-01-10T03:51:02;5.70;;;1.93;;
77287;SDS011;66345;42.694;23.346;2024-01-10T03:53:28;4.90;;;1.65;;
77287;SDS011;66345;42.694;23.346;2024-01-10T03:55:56;5.22;;;1.90;;
77287;SDS011;66345;42.694;23.346;2024-01-10T03:58:23;4.87;;;1.80;;
77287;SDS011;66345;42.694;23.346;2024-01-10T04:00:48;4.55;;;1.63;;
77287;SDS011;66345;42.694;23.346;2024-01-10T04:03:14;6.30;;;1.70;;
77287;SDS011;66345;42.694;23.346;2024-01-10T04:05:40;4.97;;;1.58;;
77287;SDS011;66345;42.694;23.346;2024-01-10T04:08:06;5.20;;;1.35;;
77287;SDS011;66345;42.694;23.346;2024-01-10T04:10:32;4.10;;;1.50;;
77287;SDS011;66345;42.694;23.346;2024-01-10T04:12:57;6.60;;;1.53;;
77287;SDS011;66345;42.694;23.346;2024-01-10T04:15:23;5.47;;;1.98;;
77287;SDS011;66345;42.694;23.346;2024-01-10T04:17:48;5.03;;;1.73;;
77287;SDS011;66345;42.694;23.346;2024-01-10T04:20:14;7.43;;;2.23;;
77287;SDS011;66345;42.694;23.346;2024-01-10T04:22:39;7.97;;;2.42;;
77287;SDS011;66345;42.694;23.346;2024-01-10T04:25:06;6.32;;;2.13;;
77287;SDS011;66345;42.694;23.346;2024-01-10T04:27:32;6.57;;;2.10;;
77287;SDS011;66345;42.694;23.346;2024-01-10T04:29:58;4.37;;;1.60;;
77287;SDS011;66345;42.694;23.346;2024-01-10T04:32:23;6.38;;;1.90;;
77287;SDS011;66345;42.694;23.346;2024-01-10T04:34:49;6.40;;;2.13;;
77287;SDS011;66345;42.694;23.346;2024-01-10T04:37:15;4.63;;;1.65;;
77287;SDS011;66345;42.694;23.346;2024-01-10T04:39:41;3.72;;;1.23;;
77287;SDS011;66345;42.694;23.346;2024-01-10T04:42:08;8.35;;;2.47;;
77287;SDS011;66345;42.694;23.346;2024-01-10T04:44:35;7.85;;;2.65;;
77287;SDS011;66345;42.694;23.346;2024-01-10T04:47:01;11.17;;;2.50;;
77287;SDS011;66345;42.694;23.346;2024-01-10T04:49:26;7.30;;;2.38;;
77287;SDS011;66345;42.694;23.346;2024-01-10T04:51:52;8.70;;;2.93;;
77287;SDS011;66345;42.694;23.346;2024-01-10T04:54:17;8.53;;;2.60;;
77287;SDS011;66345;42.694;23.346;2024-01-10T04:56:43;6.97;;;2.13;;
77287;SDS011;66345;42.694;23.346;2024-01-10T04:59:09;7.50;;;2.70;;
77287;SDS011;66345;42.694;23.346;2024-01-10T05:01:34;6.50;;;2.37;;
77287;SDS011;66345;42.694;23.346;2024-01-10T05:04:02;8.35;;;2.50;;
77287;SDS011;66345;42.694;23.346;2024-01-10T05:06:27;6.15;;;2.38;;
77287;SDS011;66345;42.694;23.346;2024-01-10T05:08:53;6.33;;;2.60;;
77287;SDS011;66345;42.694;23.346;2024-01-10T05:11:22;5.78;;;2.05;;
77287;SDS011;66345;42.694;23.346;2024-01-10T05:13:49;8.63;;;2.92;;
77287;SDS011;66345;42.694;23.346;2024-01-10T05:16:14;7.00;;;2.50;;
77287;SDS011;66345;42.694;23.346;2024-01-10T05:18:40;11.47;;;3.57;;
77287;SDS011;66345;42.694;23.346;2024-01-10T05:21:05;11.87;;;3.50;;
77287;SDS011;66345;42.694;23.346;2024-01-10T05:23:31;9.10;;;2.72;;
77287;SDS011;66345;42.694;23.346;2024-01-10T05:25:57;7.18;;;2.25;;
77287;SDS011;66345;42.694;23.346;2024-01-10T05:28:23;7.07;;;2.03;;
77287;SDS011;66345;42.694;23.346;2024-01-10T05:30:48;8.20;;;2.23;;
77287;SDS011;66345;42.694;23.346;2024-01-10T05:33:14;8.85;;;2.22;;
77287;SDS011;66345;42.694;23.346;2024-01-10T05:35:39;5.38;;;1.65;;
77287;SDS011;66345;42.694;23.346;2024-01-10T05:38:05;8.07;;;2.33;;
77287;SDS011;66345;42.694;23.346;2024-01-10T05:40:32;9.90;;;2.30;;
77287;SDS011;66345;42.694;23.346;2024-01-10T05:42:58;7.57;;;2.13;;
77287;SDS011;66345;42.694;23.346;2024-01-10T05:45:27;8.07;;;2.15;;
77287;SDS011;66345;42.694;23.346;2024-01-10T05:47:53;6.97;;;2.42;;
77287;SDS011;66345;42.694;23.346;2024-01-10T05:50:19;4.95;;;1.70;;
77287;SDS011;66345;42.694;23.346;2024-01-10T05:52:45;5.97;;;3.57;;
77287;SDS011;66345;42.694;23.346;2024-01-10T05:55:11;7.55;;;2.42;;
77287;SDS011;66345;42.694;23.346;2024-01-10T05:57:36;7.75;;;1.60;;
77287;SDS011;66345;42.694;23.346;2024-01-10T06:00:02;8.38;;;2.50;;
77287;SDS011;66345;42.694;23.346;2024-01-10T06:02:30;8.52;;;2.58;;
77287;SDS011;66345;42.694;23.346;2024-01-10T06:04:55;7.73;;;2.23;;
77287;SDS011;66345;42.694;23.346;2024-01-10T06:07:21;9.48;;;2.50;;
77287;SDS011;66345;42.694;23.346;2024-01-10T06:09:47;9.07;;;2.20;;
77287;SDS011;66345;42.694;23.346;2024-01-10T06:12:12;6.43;;;2.33;;
77287;SDS011;66345;42.694;23.346;2024-01-10T06:14:38;5.40;;;1.87;;
77287;SDS011;66345;42.694;23.346;2024-01-10T06:17:04;7.75;;;2.67;;
77287;SDS011;66345;42.694;23.346;2024-01-10T06:19:30;8.30;;;2.73;;
77287;SDS011;66345;42.694;23.346;2024-01-10T06:21:58;9.73;;;3.08;;
77287;SDS011;66345;42.694;23.346;2024-01-10T06:24:24;11.60;;;3.88;;
77287;SDS011;66345;42.694;23.346;2024-01-10T06:26:51;8.80;;;3.13;;
77287;SDS011;66345;42.694;23.346;2024-01-10T06:29:17;5.70;;;1.83;;
77287;SDS011;66345;42.694;23.346;2024-01-10T06:31:43;5.35;;;1.77;;
77287;SDS011;66345;42.694;23.346;2024-01-10T06:34:08;5.23;;;2.13;;
77287;SDS011;66345;42.694;23.346;2024-01-10T06:36:34;9.70;;;1.88;;
77287;SDS011;66345;42.694;23.346;2024-01-10T06:39:00;5.00;;;1.53;;
77287;SDS011;66345;42.694;23.346;2024-01-10T06:41:26;6.18;;;2.10;;
77287;SDS011;66345;42.694;23.346;2024-01-10T06:43:52;7.30;;;2.63;;
77287;SDS011;66345;42.694;23.346;2024-01-10T06:46:18;11.73;;;3.33;;
77287;SDS011;66345;42.694;23.346;2024-01-10T06:48:44;10.65;;;3.95;;
77287;SDS011;66345;42.694;23.346;2024-01-10T06:51:12;11.68;;;3.63;;
77287;SDS011;66345;42.694;23.346;2024-01-10T06:53:37;9.43;;;3.35;;
77287;SDS011;66345;42.694;23.346;2024-01-10T06:56:03;9.95;;;3.42;;
77287;SDS011;66345;42.694;23.346;2024-01-10T06:58:29;12.43;;;3.30;;
77287;SDS011;66345;42.694;23.346;2024-01-10T07:00:55;4.55;;;1.45;;
77287;SDS011;66345;42.694;23.346;2024-01-10T07:03:20;14.33;;;2.63;;
77287;SDS011;66345;42.694;23.346;2024-01-10T07:05:46;8.57;;;2.97;;
77287;SDS011;66345;42.694;23.346;2024-01-10T07:08:11;5.83;;;2.60;;
77287;SDS011;66345;42.694;23.346;2024-01-10T07:10:37;11.55;;;3.50;;
77287;SDS011;66345;42.694;23.346;2024-01-10T07:13:03;6.80;;;2.38;;
77287;SDS011;66345;42.694;23.346;2024-01-10T07:15:29;9.40;;;3.43;;
77287;SDS011;66345;42.694;23.346;2024-01-10T07:17:55;13.27;;;4.45;;
77287;SDS011;66345;42.694;23.346;2024-01-10T07:20:21;8.75;;;3.15;;
77287;SDS011;66345;42.694;23.346;2024-01-10T07:22:49;8.07;;;3.30;;
77287;SDS011;66345;42.694;23.346;2024-01-10T07:25:18;9.45;;;3.35;;
77287;SDS011;66345;42.694;23.346;2024-01-10T07:27:43;11.02;;;3.22;;
77287;SDS011;66345;42.694;23.346;2024-01-10T07:30:09;13.60;;;3.17;;
77287;SDS011;66345;42.694;23.346;2024-01-10T07:32:41;19.88;;;6.03;;
77287;SDS011;66345;42.694;23.346;2024-01-10T07:35:08;10.90;;;3.75;;
77287;SDS011;66345;42.694;23.346;2024-01-10T07:37:35;13.80;;;3.93;;
77287;SDS011;66345;42.694;23.346;2024-01-10T07:40:05;8.20;;;3.40;;
77287;SDS011;66345;42.694;23.346;2024-01-10T07:42:34;12.77;;;3.50;;
77287;SDS011;66345;42.694;23.346;2024-01-10T07:45:00;9.63;;;3.22;;
77287;SDS011;66345;42.694;23.346;2024-01-10T07:47:32;13.55;;;4.32;;
77287;SDS011;66345;42.694;23.346;2024-01-10T07:50:04;9.87;;;3.83;;
77287;SDS011;66345;42.694;23.346;2024-01-10T07:52:30;11.05;;;3.45;;
77287;SDS011;66345;42.694;23.346;2024-01-10T07:54:56;10.25;;;3.85;;
77287;SDS011;66345;42.694;23.346;2024-01-10T07:57:22;8.40;;;2.80;;
77287;SDS011;66345;42.694;23.346;2024-01-10T07:59:47;9.60;;;3.35;;
77287;SDS011;66345;42.694;23.346;2024-01-10T08:02:15;9.50;;;3.10;;
77287;SDS011;66345;42.694;23.346;2024-01-10T08:04:41;6.32;;;2.63;;
77287;SDS011;66345;42.694;23.346;2024-01-10T08:07:07;8.30;;;3.60;;
77287;SDS011;66345;42.694;23.346;2024-01-10T08:09:33;7.55;;;3.20;;
77287;SDS011;66345;42.694;23.346;2024-01-10T08:12:02;8.20;;;2.75;;
77287;SDS011;66345;42.694;23.346;2024-01-10T08:14:28;9.20;;;3.40;;
77287;SDS011;66345;42.694;23.346;2024-01-10T08:16:53;7.13;;;2.70;;
77287;SDS011;66345;42.694;23.346;2024-01-10T08:19:23;7.87;;;3.00;;
77287;SDS011;66345;42.694;23.346;2024-01-10T08:21:49;7.47;;;3.20;;
77287;SDS011;66345;42.694;23.346;2024-01-10T08:24:15;12.88;;;3.58;;
77287;SDS011;66345;42.694;23.346;2024-01-10T08:26:40;7.33;;;2.70;;
77287;SDS011;66345;42.694;23.346;2024-01-10T08:29:06;6.32;;;2.20;;
77287;SDS011;66345;42.694;23.346;2024-01-10T08:31:32;8.23;;;2.87;;
77287;SDS011;66345;42.694;23.346;2024-01-10T08:33:57;10.50;;;3.23;;
77287;SDS011;66345;42.694;23.346;2024-01-10T08:36:23;11.05;;;3.28;;
77287;SDS011;66345;42.694;23.346;2024-01-10T08:38:49;14.97;;;3.00;;
77287;SDS011;66345;42.694;23.346;2024-01-10T08:41:16;8.57;;;2.53;;
77287;SDS011;66345;42.694;23.346;2024-01-10T08:43:42;8.85;;;3.22;;
77287;SDS011;66345;42.694;23.346;2024-01-10T08:46:10;9.60;;;3.17;;
77287;SDS011;66345;42.694;23.346;2024-01-10T08:48:36;6.82;;;2.90;;
77287;SDS011;66345;42.694;23.346;2024-01-10T08:51:02;7.73;;;2.67;;
77287;SDS011;66345;42.694;23.346;2024-01-10T08:53:29;9.98;;;3.55;;
77287;SDS011;66345;42.694;23.346;2024-01-10T08:55:58;7.00;;;2.95;;
77287;SDS011;66345;42.694;23.346;2024-01-10T08:58:23;9.85;;;3.67;;
77287;SDS011;66345;42.694;23.346;2024-01-10T09:00:49;9.17;;;3.23;;
77287;SDS011;66345;42.694;23.346;2024-01-10T09:03:18;10.48;;;3.55;;
77287;SDS011;66345;42.694;23.346;2024-01-10T09:05:44;14.83;;;4.30;;
77287;SDS011;66345;42.694;23.346;2024-01-10T09:08:10;12.55;;;3.95;;
77287;SDS011;66345;42.694;23.346;2024-01-10T09:10:36;9.07;;;3.92;;
77287;SDS011;66345;42.694;23.346;2024-01-10T09:13:03;11.40;;;3.93;;
77287;SDS011;66345;42.694;23.346;2024-01-10T09:15:29;11.38;;;3.80;;
77287;SDS011;66345;42.694;23.346;2024-01-10T09:17:54;12.27;;;3.73;;
77287;SDS011;66345;42.694;23.346;2024-01-10T09:20:20;11.90;;;4.23;;
77287;SDS011;66345;42.694;23.346;2024-01-10T09:22:45;10.98;;;4.03;;
77287;SDS011;66345;42.694;23.346;2024-01-10T09:25:11;11.83;;;3.60;;
77287;SDS011;66345;42.694;23.346;2024-01-10T09:27:38;9.88;;;3.92;;
77287;SDS011;66345;42.694;23.346;2024-01-10T09:30:12;10.45;;;4.18;;
77287;SDS011;66345;42.694;23.346;2024-01-10T09:32:38;12.50;;;3.83;;
77287;SDS011;66345;42.694;23.346;2024-01-10T09:35:06;9.45;;;3.95;;
77287;SDS011;66345;42.694;23.346;2024-01-10T09:37:33;7.95;;;3.80;;
77287;SDS011;66345;42.694;23.346;2024-01-10T09:39:58;10.77;;;3.27;;
77287;SDS011;66345;42.694;23.346;2024-01-10T09:42:24;11.20;;;4.00;;
77287;SDS011;66345;42.694;23.346;2024-01-10T09:44:56;10.43;;;3.67;;
77287;SDS011;66345;42.694;23.346;2024-01-10T09:47:22;9.60;;;3.88;;
77287;SDS011;66345;42.694;23.346;2024-01-10T09:49:50;10.07;;;3.60;;
77287;SDS011;66345;42.694;23.346;2024-01-10T09:52:19;9.57;;;3.80;;
77287;SDS011;66345;42.694;23.346;2024-01-10T09:54:55;10.30;;;3.85;;
77287;SDS011;66345;42.694;23.346;2024-01-10T09:57:28;12.55;;;3.85;;
77287;SDS011;66345;42.694;23.346;2024-01-10T09:59:56;12.98;;;3.80;;
77287;SDS011;66345;42.694;23.346;2024-01-10T10:02:21;7.95;;;3.50;;
77287;SDS011;66345;42.694;23.346;2024-01-10T10:05:04;10.00;;;3.97;;
77287;SDS011;66345;42.694;23.346;2024-01-10T10:07:45;10.45;;;3.38;;
77287;SDS011;66345;42.694;23.346;2024-01-10T10:10:11;10.85;;;4.00;;
77287;SDS011;66345;42.694;23.346;2024-01-10T10:12:47;12.38;;;3.80;;
77287;SDS011;66345;42.694;23.346;2024-01-10T10:15:15;10.85;;;3.83;;
77287;SDS011;66345;42.694;23.346;2024-01-10T10:17:45;9.43;;;3.77;;
77287;SDS011;66345;42.694;23.346;2024-01-10T10:20:22;11.48;;;3.70;;
77287;SDS011;66345;42.694;23.346;2024-01-10T10:23:01;11.32;;;3.92;;
77287;SDS011;66345;42.694;23.346;2024-01-10T10:25:29;13.15;;;3.38;;
77287;SDS011;66345;42.694;23.346;2024-01-10T10:27:58;10.95;;;3.40;;
77287;SDS011;66345;42.694;23.346;2024-01-10T10:30:25;8.10;;;3.40;;
77287;SDS011;66345;42.694;23.346;2024-01-10T10:32:54;10.15;;;3.70;;
77287;SDS011;66345;42.694;23.346;2024-01-10T10:35:20;7.78;;;3.00;;
77287;SDS011;66345;42.694;23.346;2024-01-10T10:37:47;7.68;;;3.20;;
77287;SDS011;66345;42.694;23.346;2024-01-10T10:40:14;8.63;;;3.00;;
77287;SDS011;66345;42.694;23.346;2024-01-10T10:42:41;8.73;;;3.20;;
77287;SDS011;66345;42.694;23.346;2024-01-10T10:45:16;8.07;;;3.03;;
77287;SDS011;66345;42.694;23.346;2024-01-10T10:47:43;10.57;;;4.18;;
77287;SDS011;66345;42.694;23.346;2024-01-10T10:50:19;10.60;;;4.23;;
77287;SDS011;66345;42.694;23.346;2024-01-10T10:52:50;14.38;;;4.70;;
77287;SDS011;66345;42.694;23.346;2024-01-10T10:55:16;19.27;;;6.93;;
77287;SDS011;66345;42.694;23.346;2024-01-10T10:57:44;14.38;;;6.35;;
77287;SDS011;66345;42.694;23.346;2024-01-10T11:00:14;16.03;;;7.17;;
77287;SDS011;66345;42.694;23.346;2024-01-10T11:02:45;17.48;;;6.47;;
77287;SDS011;66345;42.694;23.346;2024-01-10T11:05:11;13.25;;;5.55;;
77287;SDS011;66345;42.694;23.346;2024-01-10T11:07:40;18.60;;;6.05;;
77287;SDS011;66345;42.694;23.346;2024-01-10T11:10:13;16.95;;;7.30;;
77287;SDS011;66345;42.694;23.346;2024-01-10T11:12:53;14.23;;;6.00;;
77287;SDS011;66345;42.694;23.346;2024-01-10T11:23:58;15.55;;;5.63;;
77287;SDS011;66345;42.694;23.346;2024-01-10T11:26:26;13.90;;;5.17;;
77287;SDS011;66345;42.694;23.346;2024-01-10T11:28:51;13.10;;;5.50;;
77287;SDS011;66345;42.694;23.346;2024-01-10T11:31:26;14.82;;;6.55;;
77287;SDS011;66345;42.694;23.346;2024-01-10T11:33:55;15.23;;;6.57;;
77287;SDS011;66345;42.694;23.346;2024-01-10T11:36:21;15.60;;;5.85;;
77287;SDS011;66345;42.694;23.346;2024-01-10T11:41:26;17.90;;;6.90;;
77287;SDS011;66345;42.694;23.346;2024-01-10T11:46:47;13.02;;;5.72;;
77287;SDS011;66345;42.694;23.346;2024-01-10T11:49:15;15.25;;;5.70;;
77287;SDS011;66345;42.694;23.346;2024-01-10T11:51:43;14.17;;;6.10;;
77287;SDS011;66345;42.694;23.346;2024-01-10T11:54:43;17.13;;;6.20;;
77287;SDS011;66345;42.694;23.346;2024-01-10T11:59:51;15.35;;;5.82;;
77287;SDS011;66345;42.694;23.346;2024-01-10T12:02:19;16.88;;;6.80;;
77287;SDS011;66345;42.694;23.346;2024-01-10T12:04:46;14.07;;;5.50;;
77287;SDS011;66345;42.694;23.346;2024-01-10T12:07:14;19.50;;;6.30;;
77287;SDS011;66345;42.694;23.346;2024-01-10T12:09:43;20.58;;;7.10;;
77287;SDS011;66345;42.694;23.346;2024-01-10T12:12:09;15.27;;;5.97;;
77287;SDS011;66345;42.694;23.346;2024-01-10T12:14:37;16.42;;;6.63;;
77287;SDS011;66345;42.694;23.346;2024-01-10T12:17:04;13.97;;;6.40;;
77287;SDS011;66345;42.694;23.346;2024-01-10T12:19:31;15.27;;;6.00;;
77287;SDS011;66345;42.694;23.346;2024-01-10T12:21:57;17.40;;;7.80;;
77287;SDS011;66345;42.694;23.346;2024-01-10T12:24:22;15.93;;;6.87;;
77287;SDS011;66345;42.694;23.346;2024-01-10T12:26:48;16.07;;;6.73;;
77287;SDS011;66345;42.694;23.346;2024-01-10T12:29:18;17.52;;;6.28;;
77287;SDS011;66345;42.694;23.346;2024-01-10T12:31:47;15.23;;;7.07;;
77287;SDS011;66345;42.694;23.346;2024-01-10T12:34:13;17.27;;;7.50;;
77287;SDS011;66345;42.694;23.346;2024-01-10T12:36:40;14.17;;;6.33;;
77287;SDS011;66345;42.694;23.346;2024-01-10T12:39:07;19.13;;;6.75;;
77287;SDS011;66345;42.694;23.346;2024-01-10T12:41:32;15.93;;;6.45;;
77287;SDS011;66345;42.694;23.346;2024-01-10T12:44:06;21.37;;;6.50;;
77287;SDS011;66345;42.694;23.346;2024-01-10T12:46:32;14.15;;;6.07;;
77287;SDS011;66345;42.694;23.346;2024-01-10T12:48:58;17.20;;;6.50;;
77287;SDS011;66345;42.694;23.346;2024-01-10T12:51:28;13.38;;;5.82;;
77287;SDS011;66345;42.694;23.346;2024-01-10T12:53:55;12.98;;;5.40;;
77287;SDS011;66345;42.694;23.346;2024-01-10T12:56:24;18.55;;;6.55;;
77287;SDS011;66345;42.694;23.346;2024-01-10T12:58:53;12.70;;;5.50;;
77287;SDS011;66345;42.694;23.346;2024-01-10T13:01:25;16.03;;;6.13;;
77287;SDS011;66345;42.694;23.346;2024-01-10T13:03:51;12.82;;;5.50;;
77287;SDS011;66345;42.694;23.346;2024-01-10T13:06:17;11.98;;;5.60;;
77287;SDS011;66345;42.694;23.346;2024-01-10T13:08:48;17.63;;;6.30;;
77287;SDS011;66345;42.694;23.346;2024-01-10T13:11:14;13.80;;;5.93;;
77287;SDS011;66345;42.694;23.346;2024-01-10T13:13:40;13.93;;;6.03;;
77287;SDS011;66345;42.694;23.346;2024-01-10T13:16:06;15.80;;;5.85;;
77287;SDS011;66345;42.694;23.346;2024-01-10T13:18:32;16.43;;;6.13;;
77287;SDS011;66345;42.694;23.346;2024-01-10T13:20:58;16.13;;;6.32;;
77287;SDS011;66345;42.694;23.346;2024-01-10T13:23:24;18.80;;;6.23;;
77287;SDS011;66345;42.694;23.346;2024-01-10T13:25:52;14.27;;;5.55;;
77287;SDS011;66345;42.694;23.346;2024-01-10T13:28:18;15.90;;;5.60;;
77287;SDS011;66345;42.694;23.346;2024-01-10T13:30:44;14.60;;;6.50;;
77287;SDS011;66345;42.694;23.346;2024-01-10T13:33:10;13.57;;;6.20;;
77287;SDS011;66345;42.694;23.346;2024-01-10T13:35:36;13.73;;;6.13;;
77287;SDS011;66345;42.694;23.346;2024-01-10T13:38:02;13.85;;;5.97;;
77287;SDS011;66345;42.694;23.346;2024-01-10T13:40:27;14.40;;;6.47;;
77287;SDS011;66345;42.694;23.346;2024-01-10T13:42:53;18.27;;;6.63;;
77287;SDS011;66345;42.694;23.346;2024-01-10T13:45:19;17.83;;;7.70;;
77287;SDS011;66345;42.694;23.346;2024-01-10T13:47:48;20.13;;;8.25;;
77287;SDS011;66345;42.694;23.346;2024-01-10T13:50:14;21.17;;;7.43;;
77287;SDS011;66345;42.694;23.346;2024-01-10T13:52:40;17.92;;;7.25;;
77287;SDS011;66345;42.694;23.346;2024-01-10T13:55:07;19.33;;;7.15;;
77287;SDS011;66345;42.694;23.346;2024-01-10T13:57:33;22.13;;;7.82;;
77287;SDS011;66345;42.694;23.346;2024-01-10T13:59:59;24.25;;;8.32;;
77287;SDS011;66345;42.694;23.346;2024-01-10T14:02:26;20.23;;;8.55;;
77287;SDS011;66345;42.694;23.346;2024-01-10T14:04:52;17.37;;;7.03;;
77287;SDS011;66345;42.694;23.346;2024-01-10T14:07:19;19.73;;;8.40;;
77287;SDS011;66345;42.694;23.346;2024-01-10T14:09:45;19.60;;;7.03;;
77287;SDS011;66345;42.694;23.346;2024-01-10T14:12:10;18.13;;;7.50;;
77287;SDS011;66345;42.694;23.346;2024-01-10T14:14:37;20.83;;;7.20;;
77287;SDS011;66345;42.694;23.346;2024-01-10T14:17:03;22.03;;;7.90;;
77287;SDS011;66345;42.694;23.346;2024-01-10T14:19:29;19.08;;;7.35;;
77287;SDS011;66345;42.694;23.346;2024-01-10T14:21:54;19.07;;;7.50;;
77287;SDS011;66345;42.694;23.346;2024-01-10T14:24:20;18.15;;;6.70;;
77287;SDS011;66345;42.694;23.346;2024-01-10T14:26:45;15.17;;;6.67;;
77287;SDS011;66345;42.694;23.346;2024-01-10T14:29:12;13.75;;;6.22;;
77287;SDS011;66345;42.694;23.346;2024-01-10T14:31:40;13.30;;;5.95;;
77287;SDS011;66345;42.694;23.346;2024-01-10T14:36:47;15.02;;;6.22;;
77287;SDS011;66345;42.694;23.346;2024-01-10T14:39:13;18.00;;;6.33;;
77287;SDS011;66345;42.694;23.346;2024-01-10T14:41:40;17.45;;;6.45;;
77287;SDS011;66345;42.694;23.346;2024-01-10T14:44:05;17.57;;;6.37;;
77287;SDS011;66345;42.694;23.346;2024-01-10T14:46:34;13.60;;;4.82;;